createdAt,value
2023-02-19T00:01:46.170Z,147.30
2023-02-19T00:03:53.959Z,107.10
2023-02-19T00:05:56.256Z,88.73
2023-02-19T00:07:58.911Z,88.93
2023-02-19T00:10:01.088Z,77.75
2023-02-19T00:12:03.164Z,66.57
2023-02-19T00:14:06.141Z,60.43
2023-02-19T00:16:10.029Z,61.13
2023-02-19T00:18:11.979Z,62.20
2023-02-19T00:20:14.550Z,62.70
2023-02-19T00:22:16.589Z,75.37
2023-02-19T00:24:19.664Z,75.30
2023-02-19T00:26:22.268Z,67.50
2023-02-19T00:28:24.672Z,71.53
2023-02-19T00:30:26.779Z,72.90
2023-02-19T00:32:28.912Z,57.38
2023-02-19T00:34:31.057Z,56.55
2023-02-19T00:36:36.284Z,45.50
2023-02-19T00:38:40.244Z,44.53
2023-02-19T00:40:42.420Z,48.07
2023-02-19T00:42:44.631Z,118.60
2023-02-19T00:44:51.186Z,173.43
2023-02-19T00:46:55.869Z,163.00
2023-02-19T00:48:58.800Z,187.23
2023-02-19T00:51:00.873Z,211.50
2023-02-19T00:53:03.344Z,194.70
2023-02-19T00:55:06.258Z,142.50
2023-02-19T00:57:08.397Z,139.23
2023-02-19T00:59:11.510Z,121.97
2023-02-19T01:01:14.499Z,95.93
2023-02-19T01:03:16.613Z,81.07
2023-02-19T01:05:18.804Z,85.37
2023-02-19T01:07:20.933Z,81.33
2023-02-19T01:09:24.885Z,84.67
2023-02-19T01:11:27.562Z,81.13
2023-02-19T01:13:30.277Z,67.93
2023-02-19T01:15:35.519Z,62.23
2023-02-19T01:17:38.403Z,61.10
2023-02-19T01:19:40.641Z,58.97
2023-02-19T01:21:42.859Z,54.93
2023-02-19T01:23:46.579Z,53.50
2023-02-19T01:25:48.710Z,50.63
2023-02-19T01:27:50.875Z,57.37
2023-02-19T01:29:52.794Z,52.80
2023-02-19T01:31:54.937Z,60.30
2023-02-19T01:34:00.584Z,54.70
2023-02-19T01:36:07.086Z,50.43
2023-02-19T01:38:09.088Z,51.60
2023-02-19T01:40:11.538Z,48.57
2023-02-19T01:42:17.212Z,50.67
2023-02-19T01:44:22.084Z,47.33
2023-02-19T01:46:33.012Z,47.23
2023-02-19T01:48:38.654Z,42.60
2023-02-19T01:50:47.710Z,53.37
2023-02-19T01:52:50.085Z,49.37
2023-02-19T01:54:55.258Z,46.97
2023-02-19T01:56:59.134Z,48.03
2023-02-19T01:59:02.278Z,51.90
2023-02-19T02:01:08.310Z,48.63
2023-02-19T02:03:10.921Z,49.63
2023-02-19T02:05:38.857Z,47.07
2023-02-19T02:07:59.704Z,50.40
2023-02-19T02:10:20.405Z,50.07
2023-02-19T02:12:22.512Z,50.23
2023-02-19T02:14:31.446Z,47.30
2023-02-19T02:16:54.435Z,50.60
2023-02-19T02:19:22.676Z,43.77
2023-02-19T02:21:36.140Z,44.17
2023-02-19T02:24:23.088Z,59.47
2023-02-19T02:26:49.803Z,144.30
2023-02-19T02:28:57.817Z,117.07
2023-02-19T02:31:07.383Z,84.00
2023-02-19T02:33:44.181Z,55.17
2023-02-19T02:36:07.825Z,129.37
2023-02-19T02:38:14.779Z,162.43
2023-02-19T02:40:20.079Z,120.97
2023-02-19T02:42:28.273Z,129.77
2023-02-19T02:45:04.803Z,59.43
2023-02-19T02:47:30.532Z,98.20
2023-02-19T02:49:57.383Z,70.30
2023-02-19T02:52:21.394Z,61.03
2023-02-19T02:54:49.736Z,54.77
2023-02-19T02:56:55.440Z,48.83
2023-02-19T02:58:59.559Z,45.73
2023-02-19T03:01:26.405Z,45.97
2023-02-19T03:03:31.463Z,53.13
2023-02-19T03:05:52.313Z,206.20
2023-02-19T03:08:16.996Z,152.20
2023-02-19T03:10:39.277Z,101.37
2023-02-19T03:13:01.749Z,92.67
2023-02-19T03:15:28.979Z,59.20
2023-02-19T03:18:10.219Z,112.77
2023-02-19T03:20:16.461Z,98.67
2023-02-19T03:22:24.149Z,127.93
2023-02-19T03:24:52.038Z,70.03
2023-02-19T03:26:58.742Z,64.50
2023-02-19T03:29:26.123Z,51.37
2023-02-19T03:31:38.472Z,46.93
2023-02-19T03:33:43.554Z,35.43
2023-02-19T03:35:50.393Z,34.30
2023-02-19T03:37:57.145Z,35.63
2023-02-19T03:40:00.021Z,31.23
2023-02-19T03:42:35.974Z,38.53
2023-02-19T03:44:48.364Z,46.17
2023-02-19T03:47:18.898Z,37.50
2023-02-19T03:49:32.773Z,35.57
2023-02-19T03:51:44.388Z,34.83
2023-02-19T03:53:54.701Z,30.67
2023-02-19T03:56:02.571Z,48.97
2023-02-19T03:58:10.333Z,63.97
2023-02-19T04:00:22.228Z,60.53
2023-02-19T04:02:32.492Z,56.60
2023-02-19T04:04:41.577Z,45.63
2023-02-19T04:06:52.924Z,43.10
2023-02-19T04:08:59.836Z,48.90
2023-02-19T04:11:03.350Z,47.13
2023-02-19T04:13:37.767Z,38.67
2023-02-19T04:15:45.397Z,36.03
2023-02-19T04:18:18.098Z,65.43
2023-02-19T04:20:22.612Z,67.73
2023-02-19T04:22:25.790Z,63.57
2023-02-19T04:25:01.176Z,44.50
2023-02-19T04:27:05.232Z,36.40
2023-02-19T04:29:10.956Z,36.30
2023-02-19T04:31:13.776Z,67.13
2023-02-19T04:33:16.228Z,66.10
2023-02-19T04:35:18.365Z,81.03
2023-02-19T04:37:20.702Z,67.10
2023-02-19T04:39:23.070Z,64.50
2023-02-19T04:41:25.420Z,54.37
2023-02-19T04:43:27.991Z,51.03
2023-02-19T04:45:30.297Z,63.13
2023-02-19T04:47:33.151Z,79.40
2023-02-19T04:49:35.167Z,69.40
2023-02-19T04:51:37.557Z,55.70
2023-02-19T04:53:39.535Z,60.63
2023-02-19T04:55:41.924Z,51.10
2023-02-19T04:57:43.996Z,51.47
2023-02-19T04:59:46.632Z,41.90
2023-02-19T05:01:48.749Z,33.43
2023-02-19T05:03:51.278Z,30.30
2023-02-19T05:05:53.649Z,33.37
2023-02-19T05:07:55.662Z,33.80
2023-02-19T05:09:59.970Z,30.07
2023-02-19T05:12:02.345Z,31.83
2023-02-19T05:14:05.301Z,32.90
2023-02-19T05:16:16.169Z,34.73
2023-02-19T05:18:18.628Z,32.17
2023-02-19T05:20:22.506Z,28.43
2023-02-19T05:22:24.770Z,29.70
2023-02-19T05:24:27.855Z,33.17
2023-02-19T05:26:31.430Z,129.87
2023-02-19T05:28:33.818Z,145.37
2023-02-19T05:30:35.978Z,123.90
2023-02-19T05:32:38.715Z,99.27
2023-02-19T05:34:43.163Z,118.97
2023-02-19T05:36:45.333Z,124.67
2023-02-19T05:38:48.101Z,91.97
2023-02-19T05:40:50.764Z,108.97
2023-02-19T05:42:52.822Z,131.07
2023-02-19T05:44:55.125Z,118.77
2023-02-19T05:46:57.324Z,114.97
2023-02-19T05:49:03.391Z,117.60
2023-02-19T05:51:12.228Z,120.80
2023-02-19T05:53:14.524Z,87.50
2023-02-19T05:55:16.716Z,65.60
2023-02-19T05:57:20.584Z,48.77
2023-02-19T05:59:25.668Z,48.93
2023-02-19T06:01:29.055Z,76.50
2023-02-19T06:03:31.192Z,101.10
2023-02-19T06:05:33.284Z,199.67
2023-02-19T06:07:35.411Z,247.07
2023-02-19T06:09:37.579Z,227.37
2023-02-19T06:11:40.348Z,170.07
2023-02-19T06:13:42.320Z,214.77
2023-02-19T06:15:44.270Z,150.73
2023-02-19T06:17:46.340Z,143.13
2023-02-19T06:19:48.725Z,186.00
2023-02-19T06:21:51.267Z,151.03
2023-02-19T06:23:54.495Z,110.80
2023-02-19T06:26:11.997Z,186.30
2023-02-19T06:28:14.064Z,162.40
2023-02-19T06:30:16.096Z,196.27
2023-02-19T06:32:18.628Z,211.20
2023-02-19T06:34:20.899Z,207.17
2023-02-19T06:36:23.904Z,229.13
2023-02-19T06:38:26.559Z,221.13
2023-02-19T06:40:29.130Z,173.37
2023-02-19T06:42:34.032Z,158.13
2023-02-19T06:44:36.520Z,127.60
2023-02-19T06:46:39.273Z,91.13
2023-02-19T06:48:44.932Z,84.87
2023-02-19T06:50:47.021Z,67.47
2023-02-19T06:52:49.348Z,50.63
2023-02-19T06:54:51.482Z,51.00
2023-02-19T06:56:53.610Z,41.47
2023-02-19T06:58:59.968Z,50.60
2023-02-19T07:01:02.336Z,39.80
2023-02-19T07:03:05.616Z,36.77
2023-02-19T07:05:07.841Z,32.77
2023-02-19T07:07:12.275Z,31.03
2023-02-19T07:09:14.319Z,33.33
2023-02-19T07:11:16.563Z,31.00
2023-02-19T07:13:19.039Z,33.47
2023-02-19T07:15:21.206Z,31.43
2023-02-19T07:17:23.227Z,30.87
2023-02-19T07:19:27.698Z,30.70
2023-02-19T07:21:30.221Z,26.43
2023-02-19T07:23:32.486Z,28.87
2023-02-19T07:25:34.493Z,31.23
2023-02-19T07:27:37.545Z,28.10
2023-02-19T07:29:39.643Z,29.53
2023-02-19T07:31:41.817Z,26.50
2023-02-19T07:33:44.895Z,25.17
2023-02-19T07:35:48.699Z,30.67
2023-02-19T07:37:50.931Z,35.97
2023-02-19T07:39:52.904Z,54.57
2023-02-19T07:41:54.945Z,55.57
2023-02-19T07:44:01.875Z,46.00
2023-02-19T07:46:09.305Z,54.13
2023-02-19T07:48:11.371Z,79.87
2023-02-19T07:50:14.103Z,115.33
2023-02-19T07:52:16.326Z,116.30
2023-02-19T07:54:18.615Z,92.30
2023-02-19T07:56:21.107Z,68.27
2023-02-19T07:58:23.145Z,55.63
2023-02-19T08:00:26.129Z,72.60
2023-02-19T08:02:46.520Z,93.30
2023-02-19T08:04:49.336Z,133.53
2023-02-19T08:06:58.441Z,138.50
2023-02-19T08:09:00.781Z,128.17
2023-02-19T08:11:22.769Z,150.83
2023-02-19T08:13:26.528Z,100.20
2023-02-19T08:15:28.778Z,131.90
2023-02-19T08:17:31.370Z,85.23
2023-02-19T08:19:33.272Z,92.37
2023-02-19T08:21:35.595Z,84.13
2023-02-19T08:23:38.086Z,80.33
2023-02-19T08:25:41.143Z,66.10
2023-02-19T08:27:45.621Z,59.73
2023-02-19T08:29:47.941Z,65.03
2023-02-19T08:31:50.387Z,75.73
2023-02-19T08:33:52.590Z,70.40
2023-02-19T08:35:54.981Z,86.70
2023-02-19T08:37:58.216Z,79.63
2023-02-19T08:40:00.447Z,76.10
2023-02-19T08:42:02.398Z,97.13
2023-02-19T08:44:04.572Z,123.60
2023-02-19T08:46:11.297Z,128.57
2023-02-19T08:48:14.271Z,115.73
2023-02-19T08:50:16.352Z,162.37
2023-02-19T08:52:18.541Z,170.57
2023-02-19T08:54:20.797Z,222.50
2023-02-19T08:56:23.111Z,170.07
2023-02-19T08:58:28.150Z,191.33
2023-02-19T09:00:30.568Z,161.77
2023-02-19T09:02:33.018Z,147.17
2023-02-19T09:04:36.522Z,126.17
2023-02-19T09:06:40.160Z,117.13
2023-02-19T09:08:42.521Z,96.30
2023-02-19T09:10:44.583Z,101.03
2023-02-19T09:12:46.610Z,102.87
2023-02-19T09:14:48.834Z,93.90
2023-02-19T09:16:51.172Z,79.27
2023-02-19T09:18:53.233Z,77.63
2023-02-19T09:20:55.186Z,65.50
2023-02-19T09:22:58.672Z,60.97
2023-02-19T09:25:00.754Z,60.50
2023-02-19T09:27:02.818Z,50.67
2023-02-19T09:29:05.205Z,45.97
2023-02-19T09:31:09.594Z,52.00
2023-02-19T09:33:11.998Z,53.73
2023-02-19T09:35:14.174Z,40.80
2023-02-19T09:37:16.380Z,46.03
2023-02-19T09:39:18.723Z,38.70
2023-02-19T09:41:40.825Z,39.83
2023-02-19T09:43:44.067Z,58.33
2023-02-19T09:45:47.188Z,54.70
2023-02-19T09:47:53.588Z,54.93
2023-02-19T09:50:00.174Z,56.50
2023-02-19T09:52:23.004Z,57.23
2023-02-19T09:54:29.405Z,55.90
2023-02-19T09:56:34.015Z,48.47
2023-02-19T09:58:52.486Z,66.60
2023-02-19T10:00:58.911Z,63.90
2023-02-19T10:03:14.984Z,67.17
2023-02-19T10:05:17.766Z,59.90
2023-02-19T10:07:44.051Z,55.80
2023-02-19T10:09:52.831Z,94.50
2023-02-19T10:11:56.295Z,103.03
2023-02-19T10:14:42.038Z,88.33
2023-02-19T10:16:46.760Z,151.67
2023-02-19T10:18:48.859Z,98.13
2023-02-19T10:20:52.650Z,95.70
2023-02-19T10:23:07.158Z,79.73
2023-02-19T10:25:14.945Z,60.00
2023-02-19T10:27:16.942Z,56.70
2023-02-19T10:29:20.325Z,53.30
2023-02-19T10:31:25.971Z,48.27
2023-02-19T10:33:28.724Z,37.53
2023-02-19T10:35:35.480Z,32.80
2023-02-19T10:37:46.639Z,34.13
2023-02-19T10:39:50.823Z,31.87
2023-02-19T10:41:56.330Z,35.63
2023-02-19T10:44:16.468Z,36.83
2023-02-19T10:46:32.113Z,35.53
2023-02-19T10:48:47.033Z,32.93
2023-02-19T10:50:58.206Z,34.23
2023-02-19T10:53:02.175Z,25.57
2023-02-19T10:55:28.511Z,25.55
2023-02-19T10:57:33.191Z,34.73
2023-02-19T10:59:35.383Z,27.50
2023-02-19T11:01:53.134Z,21.27
2023-02-19T11:04:21.070Z,26.20
2023-02-19T11:06:27.080Z,24.23
2023-02-19T11:08:30.374Z,24.47
2023-02-19T11:10:45.206Z,22.07
2023-02-19T11:12:50.891Z,24.17
2023-02-19T11:14:52.907Z,22.63
2023-02-19T11:16:57.999Z,21.60
2023-02-19T11:19:00.651Z,25.23
2023-02-19T11:21:05.743Z,25.45
2023-02-19T11:23:17.620Z,22.50
2023-02-19T11:25:25.555Z,24.40
2023-02-19T11:27:27.753Z,25.08
2023-02-19T11:29:35.090Z,24.98
2023-02-19T11:31:37.755Z,20.95
2023-02-19T11:34:01.229Z,24.40
2023-02-19T11:36:15.529Z,25.65
2023-02-19T11:38:19.746Z,25.50
2023-02-19T11:40:30.561Z,23.88
2023-02-19T11:42:57.558Z,30.90
2023-02-19T11:45:24.740Z,31.60
2023-02-19T11:47:54.853Z,25.45
2023-02-19T11:50:05.788Z,26.45
2023-02-19T11:52:13.940Z,24.98
2023-02-19T11:54:24.474Z,23.45
2023-02-19T11:56:34.376Z,24.92
2023-02-19T11:58:51.233Z,29.20
2023-02-19T12:01:10.086Z,25.42
2023-02-19T12:03:44.420Z,25.58
2023-02-19T12:06:10.068Z,24.98
2023-02-19T12:08:18.329Z,25.03
2023-02-19T12:10:24.707Z,27.83
2023-02-19T12:12:35.677Z,25.30
2023-02-19T12:14:47.914Z,29.57
2023-02-19T12:17:27.170Z,25.53
2023-02-19T12:19:47.961Z,24.20
2023-02-19T12:22:29.415Z,32.07
2023-02-19T12:24:31.730Z,29.13
2023-02-19T12:26:46.034Z,26.47
2023-02-19T12:29:18.651Z,25.97
2023-02-19T12:31:35.193Z,29.03
2023-02-19T12:34:05.315Z,33.63
2023-02-19T12:36:50.842Z,151.63
2023-02-19T12:39:17.134Z,208.03
2023-02-19T12:42:09.516Z,296.20
2023-02-19T12:44:21.009Z,243.43
2023-02-19T12:46:52.599Z,158.68
2023-02-19T12:49:23.267Z,160.98
2023-02-19T12:51:34.237Z,174.95
2023-02-19T12:53:36.234Z,152.63
2023-02-19T12:55:46.034Z,264.30
2023-02-19T12:57:51.845Z,144.37
2023-02-19T13:00:31.541Z,170.43
2023-02-19T13:03:00.069Z,97.30
2023-02-19T13:05:37.156Z,111.43
2023-02-19T13:08:01.492Z,187.85
2023-02-19T13:10:36.078Z,261.67
2023-02-19T13:12:43.404Z,171.15
2023-02-19T13:14:49.517Z,167.32
2023-02-19T13:17:00.413Z,120.30
2023-02-19T13:19:04.941Z,140.98
2023-02-19T13:21:08.691Z,60.67
2023-02-19T13:23:35.464Z,125.88
2023-02-19T13:25:57.508Z,132.43
2023-02-19T13:28:15.682Z,87.72
2023-02-19T13:30:32.025Z,140.18
2023-02-19T13:32:56.232Z,151.20
2023-02-19T13:35:21.884Z,77.10
2023-02-19T13:37:25.356Z,70.43
2023-02-19T13:39:29.212Z,60.63
2023-02-19T13:41:54.670Z,90.80
2023-02-19T13:44:00.987Z,117.05
2023-02-19T13:46:06.564Z,164.07
2023-02-19T13:48:23.973Z,187.15
2023-02-19T13:50:32.058Z,130.13
2023-02-19T13:52:38.283Z,118.20
2023-02-19T13:54:40.716Z,93.35
2023-02-19T13:56:43.014Z,60.45
2023-02-19T13:58:58.579Z,58.65
2023-02-19T14:01:04.742Z,73.15
2023-02-19T14:03:39.509Z,75.55
2023-02-19T14:06:09.870Z,48.95
2023-02-19T14:08:12.573Z,64.15
2023-02-19T14:10:46.249Z,73.38
2023-02-19T14:12:48.507Z,45.53
2023-02-19T14:14:52.333Z,42.17
2023-02-19T14:17:09.858Z,37.88
2023-02-19T14:19:35.828Z,53.78
2023-02-19T14:21:40.351Z,54.17
2023-02-19T14:23:43.528Z,52.28
2023-02-19T14:25:52.924Z,56.67
2023-02-19T14:28:17.416Z,73.32
2023-02-19T14:30:22.470Z,89.40
2023-02-19T14:32:25.122Z,49.53
2023-02-19T14:34:27.525Z,58.03
2023-02-19T14:36:41.690Z,58.78
2023-02-19T14:39:15.793Z,57.33
2023-02-19T14:41:18.634Z,73.35
2023-02-19T14:43:23.753Z,87.53
2023-02-19T14:45:29.113Z,77.95
2023-02-19T14:47:35.051Z,57.10
2023-02-19T14:49:55.469Z,40.60
2023-02-19T14:52:01.778Z,27.83
2023-02-19T14:54:15.812Z,36.88
2023-02-19T14:56:23.811Z,60.63
2023-02-19T14:58:32.241Z,66.25
2023-02-19T15:00:40.381Z,51.35
2023-02-19T15:02:43.592Z,45.10
2023-02-19T15:04:45.681Z,53.65
2023-02-19T15:06:47.902Z,63.25
2023-02-19T15:08:55.992Z,69.82
2023-02-19T15:10:58.677Z,72.65
2023-02-19T15:13:07.569Z,106.28
2023-02-19T15:15:19.192Z,134.65
2023-02-19T15:17:32.770Z,159.90
2023-02-19T15:19:37.663Z,262.70
2023-02-19T15:21:48.208Z,291.65
2023-02-19T15:23:51.336Z,315.45
2023-02-19T15:25:53.982Z,310.90
2023-02-19T15:28:21.894Z,303.13
2023-02-19T15:30:28.602Z,244.68
2023-02-19T15:32:30.832Z,263.98
2023-02-19T15:34:33.564Z,305.40
2023-02-19T15:36:35.703Z,325.20
2023-02-19T15:38:40.587Z,217.13
2023-02-19T15:40:47.325Z,143.27
2023-02-19T15:42:49.599Z,144.25
2023-02-19T15:45:22.718Z,194.75
2023-02-19T15:47:45.049Z,145.02
2023-02-19T15:49:57.341Z,134.23
2023-02-19T15:52:13.029Z,181.18
2023-02-19T15:54:20.624Z,166.48
2023-02-19T15:56:33.714Z,119.82
2023-02-19T15:59:14.854Z,84.63
2023-02-19T16:01:31.689Z,66.65
2023-02-19T16:03:35.482Z,74.47
2023-02-19T16:05:40.311Z,77.63
2023-02-19T16:07:44.059Z,84.25
2023-02-19T16:09:46.155Z,65.55
2023-02-19T16:11:51.831Z,73.63
2023-02-19T16:14:24.462Z,247.13
2023-02-19T16:16:31.004Z,163.10
2023-02-19T16:18:34.541Z,89.97
2023-02-19T16:20:36.758Z,61.90
2023-02-19T16:22:43.029Z,61.42
2023-02-19T16:24:55.319Z,47.60
2023-02-19T16:26:58.518Z,39.35
2023-02-19T16:29:00.834Z,34.03
2023-02-19T16:31:06.672Z,37.97
2023-02-19T16:33:33.640Z,73.30
2023-02-19T16:35:37.514Z,80.20
2023-02-19T16:37:44.294Z,82.73
2023-02-19T16:39:46.569Z,82.93
2023-02-19T16:41:48.676Z,52.63
2023-02-19T16:43:50.659Z,38.40
2023-02-19T16:45:53.173Z,36.78
2023-02-19T16:47:55.552Z,36.77
2023-02-19T16:50:00.360Z,34.67
2023-02-19T16:52:04.776Z,33.72
2023-02-19T16:54:07.052Z,33.00
2023-02-19T16:56:19.073Z,29.75
2023-02-19T16:58:21.626Z,26.45
2023-02-19T17:00:31.474Z,21.80
2023-02-19T17:02:34.018Z,23.20
2023-02-19T17:04:36.282Z,27.88
2023-02-19T17:06:38.563Z,26.93
2023-02-19T17:08:45.204Z,31.52
2023-02-19T17:10:47.401Z,28.73
2023-02-19T17:12:50.857Z,25.55
2023-02-19T17:14:53.426Z,28.98
2023-02-19T17:16:55.576Z,25.90
2023-02-19T17:18:59.094Z,27.98
2023-02-19T17:21:17.582Z,23.80
2023-02-19T17:23:19.627Z,22.65
2023-02-19T17:25:23.508Z,21.58
2023-02-19T17:27:25.561Z,23.52
2023-02-19T17:29:28.884Z,25.52
2023-02-19T17:31:34.354Z,22.88
2023-02-19T17:33:37.191Z,13.27
2023-02-19T17:35:39.370Z,9.77
2023-02-19T17:37:41.597Z,6.18
2023-02-19T17:39:43.855Z,7.68
2023-02-19T17:41:45.966Z,5.93
2023-02-19T17:43:50.542Z,8.07
2023-02-19T17:45:53.161Z,5.65
2023-02-19T17:47:57.187Z,9.47
2023-02-19T17:50:03.626Z,7.88
2023-02-19T17:52:06.092Z,6.15
2023-02-19T17:54:09.526Z,4.57
2023-02-19T17:56:17.027Z,3.35
2023-02-19T17:58:19.501Z,8.75
2023-02-19T18:00:30.014Z,5.75
2023-02-19T18:02:32.364Z,6.23
2023-02-19T18:04:40.142Z,7.68
2023-02-19T18:06:43.672Z,8.13
2023-02-19T18:08:50.952Z,8.27
2023-02-19T18:10:53.480Z,8.60
2023-02-19T18:12:56.059Z,11.05
2023-02-19T18:14:58.372Z,12.32
2023-02-19T18:17:02.830Z,8.73
2023-02-19T18:19:07.648Z,8.60
2023-02-19T18:21:11.476Z,6.97
2023-02-19T18:23:14.466Z,7.70
2023-02-19T18:25:17.363Z,9.10
2023-02-19T18:27:22.930Z,7.95
2023-02-19T18:29:27.159Z,8.73
2023-02-19T18:31:32.846Z,12.73
2023-02-19T18:33:35.513Z,13.68
2023-02-19T18:35:38.666Z,13.55
2023-02-19T18:37:40.886Z,12.27
2023-02-19T18:39:44.596Z,12.57
2023-02-19T18:41:51.207Z,8.68
2023-02-19T18:43:53.744Z,10.23
2023-02-19T18:45:55.753Z,10.20
2023-02-19T18:47:57.880Z,10.97
2023-02-19T18:49:59.964Z,15.25
2023-02-19T18:52:02.092Z,48.45
2023-02-19T18:54:04.656Z,63.22
2023-02-19T18:56:09.171Z,58.22
2023-02-19T18:58:11.185Z,57.88
2023-02-19T19:00:23.779Z,43.20
2023-02-19T19:02:27.135Z,37.03
2023-02-19T19:04:29.366Z,30.63
2023-02-19T19:06:31.844Z,30.13
2023-02-19T19:08:34.164Z,27.60
2023-02-19T19:10:36.271Z,23.60
2023-02-19T19:12:38.440Z,24.30
2023-02-19T19:14:40.692Z,24.57
2023-02-19T19:16:43.271Z,21.98
2023-02-19T19:18:47.409Z,25.30
2023-02-19T19:20:49.667Z,26.57
2023-02-19T19:22:53.004Z,90.82
2023-02-19T19:24:55.180Z,215.77
2023-02-19T19:26:57.222Z,244.95
2023-02-19T19:28:59.663Z,262.42
2023-02-19T19:31:05.783Z,226.60
2023-02-19T19:33:07.899Z,219.10
2023-02-19T19:35:10.226Z,157.90
2023-02-19T19:37:12.526Z,75.93
2023-02-19T19:39:15.124Z,49.93
2023-02-19T19:41:19.330Z,53.90
2023-02-19T19:43:21.493Z,26.43
2023-02-19T19:45:24.409Z,19.83
2023-02-19T19:47:26.595Z,11.10
2023-02-19T19:49:28.774Z,13.73
2023-02-19T19:51:32.736Z,7.97
2023-02-19T19:53:35.129Z,6.38
2023-02-19T19:55:37.518Z,13.27
2023-02-19T19:57:40.932Z,14.40
2023-02-19T19:59:42.935Z,10.70
2023-02-19T20:01:49.898Z,12.83
2023-02-19T20:03:52.098Z,10.83
2023-02-19T20:05:55.005Z,7.70
2023-02-19T20:07:57.091Z,16.17
2023-02-19T20:09:59.307Z,23.67
2023-02-19T20:12:02.307Z,21.67
2023-02-19T20:14:07.361Z,8.47
2023-02-19T20:16:11.057Z,13.30
2023-02-19T20:18:13.350Z,11.50
2023-02-19T20:20:17.834Z,17.93
2023-02-19T20:22:20.530Z,24.63
2023-02-19T20:24:26.121Z,7.03
2023-02-19T20:26:29.790Z,12.03
2023-02-19T20:28:32.669Z,14.83
2023-02-19T20:30:37.386Z,12.50
2023-02-19T20:32:39.332Z,10.53
2023-02-19T20:34:41.721Z,9.13
2023-02-19T20:36:48.153Z,9.40
2023-02-19T20:38:50.667Z,8.10
2023-02-19T20:40:56.603Z,9.77
2023-02-19T20:43:00.989Z,6.50
2023-02-19T20:45:06.133Z,7.03
2023-02-19T20:47:08.214Z,6.13
2023-02-19T20:49:10.461Z,5.13
2023-02-19T20:51:12.359Z,5.30
2023-02-19T20:53:14.591Z,5.10
2023-02-19T20:55:16.703Z,4.33
2023-02-19T20:57:18.527Z,6.83
2023-02-19T20:59:22.824Z,6.90
2023-02-19T21:01:28.165Z,6.57
2023-02-19T21:03:30.358Z,5.73
2023-02-19T21:05:32.404Z,7.60
2023-02-19T21:07:34.731Z,7.07
2023-02-19T21:09:36.697Z,4.77
2023-02-19T21:11:39.514Z,5.87
2023-02-19T21:13:43.306Z,4.30
2023-02-19T21:15:46.009Z,4.93
2023-02-19T21:17:48.197Z,6.07
2023-02-19T21:19:50.359Z,4.87
2023-02-19T21:21:52.413Z,5.83
2023-02-19T21:23:55.719Z,6.27
2023-02-19T21:25:57.892Z,6.00
2023-02-19T21:27:59.850Z,5.33
2023-02-19T21:30:02.045Z,6.90
2023-02-19T21:32:04.218Z,5.70
2023-02-19T21:34:08.054Z,5.33
2023-02-19T21:36:10.733Z,5.87
2023-02-19T21:38:13.057Z,4.23
2023-02-19T21:40:15.663Z,5.17
2023-02-19T21:42:18.079Z,4.70
2023-02-19T21:44:21.459Z,4.43
2023-02-19T21:46:25.249Z,3.80
2023-02-19T21:48:27.944Z,5.47
2023-02-19T21:50:30.089Z,7.90
2023-02-19T21:52:32.254Z,6.73
2023-02-19T21:54:34.293Z,4.57
2023-02-19T21:56:37.201Z,6.87
2023-02-19T21:58:39.475Z,6.30
2023-02-19T22:00:41.506Z,7.30
2023-02-19T22:02:43.739Z,6.50
2023-02-19T22:04:46.991Z,5.50
2023-02-19T22:06:48.948Z,7.80
2023-02-19T22:08:51.112Z,5.23
2023-02-19T22:10:53.164Z,6.37
2023-02-19T22:12:55.741Z,4.87
2023-02-19T22:14:57.977Z,4.13
2023-02-19T22:17:00.050Z,4.77
2023-02-19T22:19:02.238Z,4.87
2023-02-19T22:21:05.704Z,5.87
2023-02-19T22:23:08.244Z,7.40
2023-02-19T22:25:10.171Z,5.83
2023-02-19T22:27:12.272Z,4.23
2023-02-19T22:29:15.803Z,4.43
2023-02-19T22:31:20.439Z,7.43
2023-02-19T22:33:23.626Z,7.27
2023-02-19T22:35:27.125Z,7.70
2023-02-19T22:37:30.099Z,5.07
2023-02-19T22:39:32.374Z,5.70
2023-02-19T22:41:36.734Z,5.30
2023-02-19T22:43:39.101Z,7.60
2023-02-19T22:45:41.478Z,8.53
2023-02-19T22:47:47.132Z,7.33
2023-02-19T22:49:49.107Z,7.33
2023-02-19T22:51:56.828Z,5.70
2023-02-19T22:54:00.265Z,10.77
2023-02-19T22:56:02.272Z,7.40
2023-02-19T22:58:04.282Z,9.10
2023-02-19T23:00:07.219Z,9.53
2023-02-19T23:02:09.211Z,6.93
2023-02-19T23:04:11.626Z,7.67
2023-02-19T23:06:20.529Z,11.63
2023-02-19T23:08:22.657Z,70.50
2023-02-19T23:10:24.780Z,79.00
2023-02-19T23:12:26.854Z,53.40
2023-02-19T23:14:29.074Z,36.60
2023-02-19T23:16:36.232Z,22.03
2023-02-19T23:18:38.439Z,18.50
2023-02-19T23:20:40.592Z,20.67
2023-02-19T23:22:43.697Z,17.83
2023-02-19T23:24:46.214Z,16.53
2023-02-19T23:26:50.894Z,14.47
2023-02-19T23:28:53.064Z,11.13
2023-02-19T23:30:55.287Z,8.17
2023-02-19T23:32:57.607Z,6.50
2023-02-19T23:34:59.507Z,5.30
2023-02-19T23:37:02.430Z,11.40
2023-02-19T23:39:04.374Z,14.57
2023-02-19T23:41:11.886Z,17.70
2023-02-19T23:43:13.798Z,24.87
2023-02-19T23:45:16.896Z,26.50
2023-02-19T23:47:20.230Z,14.63
2023-02-19T23:49:23.008Z,14.33
2023-02-19T23:51:25.294Z,6.90
2023-02-19T23:53:27.353Z,8.67
2023-02-19T23:55:30.748Z,7.40
2023-02-19T23:57:32.832Z,6.60
2023-02-19T23:59:36.028Z,10.33
